sensor_id;sensor_type;location;lat;lon;timestamp;pressure;altitude;pressure_sealevel;temperature;humidity
64019;BME280;66942;52.138;5.216;2023-04-06T00:02:35;101881.0;;;5.84;57.76
64019;BME280;66942;52.138;5.216;2023-04-06T00:04:11;101885.0;;;5.85;58.0
64019;BME280;66942;52.138;5.216;2023-04-06T00:05:48;101881.0;;;5.8;57.55
64019;BME280;66942;52.138;5.216;2023-04-06T00:09:01;101877.0;;;5.88;57.46
64019;BME280;66942;52.138;5.216;2023-04-06T00:10:37;101876.0;;;5.85;57.35
64019;BME280;66942;52.138;5.216;2023-04-06T00:12:13;101868.0;;;5.94;57.33
64019;BME280;66942;52.138;5.216;2023-04-06T00:15:25;101872.0;;;5.88;57.94
64019;BME280;66942;52.138;5.216;2023-04-06T00:17:02;101867.0;;;5.88;57.81
64019;BME280;66942;52.138;5.216;2023-04-06T00:18:38;101866.0;;;5.84;57.35
64019;BME280;66942;52.138;5.216;2023-04-06T00:20:15;101863.0;;;5.86;57.58
64019;BME280;66942;52.138;5.216;2023-04-06T00:23:28;101867.0;;;5.93;57.21
64019;BME280;66942;52.138;5.216;2023-04-06T00:25:05;101863.0;;;5.87;57.02
64019;BME280;66942;52.138;5.216;2023-04-06T00:26:41;101858.0;;;5.98;57.69
64019;BME280;66942;52.138;5.216;2023-04-06T00:29:53;101860.0;;;6.18;57.14
64019;BME280;66942;52.138;5.216;2023-04-06T00:31:30;101853.0;;;5.96;57.86
64019;BME280;66942;52.138;5.216;2023-04-06T00:33:06;101853.0;;;5.87;57.29
64019;BME280;66942;52.138;5.216;2023-04-06T00:36:18;101850.0;;;5.76;57.24
64019;BME280;66942;52.138;5.216;2023-04-06T00:37:54;101846.0;;;5.86;57.19
64019;BME280;66942;52.138;5.216;2023-04-06T00:39:30;101847.0;;;5.84;57.32
64019;BME280;66942;52.138;5.216;2023-04-06T00:42:43;101847.0;;;5.86;57.54
64019;BME280;66942;52.138;5.216;2023-04-06T00:44:19;101840.0;;;6.02;57.0
64019;BME280;66942;52.138;5.216;2023-04-06T00:45:56;101840.0;;;5.9;57.11
64019;BME280;66942;52.138;5.216;2023-04-06T00:47:33;101839.0;;;5.83;57.42
64019;BME280;66942;52.138;5.216;2023-04-06T00:50:45;101833.0;;;5.82;57.88
64019;BME280;66942;52.138;5.216;2023-04-06T00:52:22;101830.0;;;5.74;58.06
64019;BME280;66942;52.138;5.216;2023-04-06T00:53:58;101830.0;;;5.73;57.52
64019;BME280;66942;52.138;5.216;2023-04-06T00:57:11;101826.0;;;5.82;57.32
64019;BME280;66942;52.138;5.216;2023-04-06T00:58:48;101827.0;;;5.78;57.4
64019;BME280;66942;52.138;5.216;2023-04-06T01:00:24;101825.0;;;5.81;57.11
64019;BME280;66942;52.138;5.216;2023-04-06T01:03:36;101825.0;;;5.95;56.74
64019;BME280;66942;52.138;5.216;2023-04-06T01:05:12;101822.0;;;5.94;57.35
64019;BME280;66942;52.138;5.216;2023-04-06T01:06:49;101819.0;;;6.09;56.32
64019;BME280;66942;52.138;5.216;2023-04-06T01:08:25;101812.0;;;6.11;56.59
64019;BME280;66942;52.138;5.216;2023-04-06T01:11:40;101813.0;;;6.3;56.06
64019;BME280;66942;52.138;5.216;2023-04-06T01:13:16;101806.0;;;6.28;55.94
64019;BME280;66942;52.138;5.216;2023-04-06T01:14:52;101803.0;;;6.18;56.06
64019;BME280;66942;52.138;5.216;2023-04-06T01:18:04;101805.0;;;6.38;56.04
64019;BME280;66942;52.138;5.216;2023-04-06T01:19:41;101803.0;;;6.42;56.21
64019;BME280;66942;52.138;5.216;2023-04-06T01:21:17;101801.0;;;6.4;56.54
64019;BME280;66942;52.138;5.216;2023-04-06T01:24:29;101801.0;;;6.43;56.35
64019;BME280;66942;52.138;5.216;2023-04-06T01:26:05;101799.0;;;6.44;56.73
64019;BME280;66942;52.138;5.216;2023-04-06T01:27:41;101801.0;;;6.57;56.46
64019;BME280;66942;52.138;5.216;2023-04-06T01:29:17;101799.0;;;6.68;56.38
64019;BME280;66942;52.138;5.216;2023-04-06T01:32:30;101794.0;;;6.76;56.29
64019;BME280;66942;52.138;5.216;2023-04-06T01:34:06;101792.0;;;6.81;55.87
64019;BME280;66942;52.138;5.216;2023-04-06T01:35:42;101793.0;;;6.62;56.75
64019;BME280;66942;52.138;5.216;2023-04-06T01:38:54;101788.0;;;6.63;57.33
64019;BME280;66942;52.138;5.216;2023-04-06T01:40:30;101786.0;;;6.98;56.84
64019;BME280;66942;52.138;5.216;2023-04-06T01:42:06;101782.0;;;7.01;56.64
64019;BME280;66942;52.138;5.216;2023-04-06T01:45:19;101780.0;;;7.12;56.34
64019;BME280;66942;52.138;5.216;2023-04-06T01:46:55;101776.0;;;7.26;55.96
64019;BME280;66942;52.138;5.216;2023-04-06T01:48:31;101775.0;;;7.15;56.03
64019;BME280;66942;52.138;5.216;2023-04-06T01:51:43;101769.0;;;7.48;54.31
64019;BME280;66942;52.138;5.216;2023-04-06T01:53:20;101768.0;;;7.46;55.04
64019;BME280;66942;52.138;5.216;2023-04-06T01:54:56;101765.0;;;7.56;54.8
64019;BME280;66942;52.138;5.216;2023-04-06T01:56:32;101764.0;;;7.53;55.15
64019;BME280;66942;52.138;5.216;2023-04-06T01:59:44;101764.0;;;7.68;54.68
64019;BME280;66942;52.138;5.216;2023-04-06T02:01:20;101757.0;;;7.63;54.51
64019;BME280;66942;52.138;5.216;2023-04-06T02:02:56;101756.0;;;7.63;54.67
64019;BME280;66942;52.138;5.216;2023-04-06T02:06:09;101752.0;;;7.79;54.54
64019;BME280;66942;52.138;5.216;2023-04-06T02:07:45;101751.0;;;7.68;54.28
64019;BME280;66942;52.138;5.216;2023-04-06T02:09:21;101745.0;;;7.77;54.17
64019;BME280;66942;52.138;5.216;2023-04-06T02:12:33;101746.0;;;7.8;53.76
64019;BME280;66942;52.138;5.216;2023-04-06T02:14:09;101749.0;;;7.98;53.29
64019;BME280;66942;52.138;5.216;2023-04-06T02:15:45;101740.0;;;8.18;53.98
64019;BME280;66942;52.138;5.216;2023-04-06T02:18:58;101742.0;;;8.13;54.02
64019;BME280;66942;52.138;5.216;2023-04-06T02:20:34;101741.0;;;8.14;53.25
64019;BME280;66942;52.138;5.216;2023-04-06T02:22:10;101737.0;;;8.26;52.76
64019;BME280;66942;52.138;5.216;2023-04-06T02:23:46;101734.0;;;8.26;52.88
64019;BME280;66942;52.138;5.216;2023-04-06T02:26:58;101732.0;;;8.3;52.06
64019;BME280;66942;52.138;5.216;2023-04-06T02:28:36;101732.0;;;8.33;52.83
64019;BME280;66942;52.138;5.216;2023-04-06T02:30:12;101728.0;;;8.34;51.64
64019;BME280;66942;52.138;5.216;2023-04-06T02:33:24;101728.0;;;8.4;50.76
64019;BME280;66942;52.138;5.216;2023-04-06T02:35:00;101725.0;;;8.4;51.24
64019;BME280;66942;52.138;5.216;2023-04-06T02:36:37;101719.0;;;8.5;51.09
64019;BME280;66942;52.138;5.216;2023-04-06T02:39:50;101714.0;;;8.64;49.71
64019;BME280;66942;52.138;5.216;2023-04-06T02:41:26;101714.0;;;8.69;49.77
64019;BME280;66942;52.138;5.216;2023-04-06T02:43:02;101709.0;;;8.74;47.82
64019;BME280;66942;52.138;5.216;2023-04-06T02:44:38;101708.0;;;9.0;47.52
64019;BME280;66942;52.138;5.216;2023-04-06T02:47:50;101701.0;;;9.08;46.84
64019;BME280;66942;52.138;5.216;2023-04-06T02:49:26;101703.0;;;8.98;45.42
64019;BME280;66942;52.138;5.216;2023-04-06T02:51:03;101697.0;;;9.24;45.3
64019;BME280;66942;52.138;5.216;2023-04-06T02:54:15;101695.0;;;9.1;45.58
64019;BME280;66942;52.138;5.216;2023-04-06T02:55:51;101695.0;;;9.25;44.49
64019;BME280;66942;52.138;5.216;2023-04-06T02:57:27;101692.0;;;9.35;45.03
64019;BME280;66942;52.138;5.216;2023-04-06T03:00:39;101692.0;;;9.32;46.9
64019;BME280;66942;52.138;5.216;2023-04-06T03:02:16;101687.0;;;9.44;46.06
64019;BME280;66942;52.138;5.216;2023-04-06T03:03:52;101688.0;;;9.5;44.56
64019;BME280;66942;52.138;5.216;2023-04-06T03:07:04;101682.0;;;9.46;44.81
64019;BME280;66942;52.138;5.216;2023-04-06T03:08:40;101687.0;;;9.48;45.09
64019;BME280;66942;52.138;5.216;2023-04-06T03:10:17;101683.0;;;9.4;45.12
64019;BME280;66942;52.138;5.216;2023-04-06T03:11:53;101680.0;;;9.44;44.99
64019;BME280;66942;52.138;5.216;2023-04-06T03:15:06;101680.0;;;9.64;43.44
64019;BME280;66942;52.138;5.216;2023-04-06T03:16:42;101674.0;;;9.73;45.83
64019;BME280;66942;52.138;5.216;2023-04-06T03:18:21;101678.0;;;9.5;44.15
64019;BME280;66942;52.138;5.216;2023-04-06T03:21:33;101674.0;;;9.68;44.75
64019;BME280;66942;52.138;5.216;2023-04-06T03:23:09;101669.0;;;9.57;44.92
64019;BME280;66942;52.138;5.216;2023-04-06T03:24:46;101673.0;;;9.81;43.2
64019;BME280;66942;52.138;5.216;2023-04-06T03:27:58;101670.0;;;9.72;44.98
64019;BME280;66942;52.138;5.216;2023-04-06T03:29:34;101666.0;;;9.59;43.41
64019;BME280;66942;52.138;5.216;2023-04-06T03:31:10;101666.0;;;9.84;42.58
64019;BME280;66942;52.138;5.216;2023-04-06T03:32:46;101666.0;;;9.8;43.25
64019;BME280;66942;52.138;5.216;2023-04-06T03:35:59;101668.0;;;9.73;44.93
64019;BME280;66942;52.138;5.216;2023-04-06T03:37:35;101666.0;;;9.73;43.31
64019;BME280;66942;52.138;5.216;2023-04-06T03:39:12;101665.0;;;10.02;43.08
64019;BME280;66942;52.138;5.216;2023-04-06T03:42:24;101659.0;;;10.11;42.91
64019;BME280;66942;52.138;5.216;2023-04-06T03:44:00;101663.0;;;9.92;42.53
64019;BME280;66942;52.138;5.216;2023-04-06T03:45:37;101664.0;;;10.06;44.06
64019;BME280;66942;52.138;5.216;2023-04-06T03:48:49;101658.0;;;10.08;44.25
64019;BME280;66942;52.138;5.216;2023-04-06T03:50:25;101648.0;;;10.25;45.0
64019;BME280;66942;52.138;5.216;2023-04-06T03:52:01;101649.0;;;9.84;43.24
64019;BME280;66942;52.138;5.216;2023-04-06T03:53:37;101648.0;;;9.78;44.36
64019;BME280;66942;52.138;5.216;2023-04-06T03:56:49;101647.0;;;9.74;44.09
64019;BME280;66942;52.138;5.216;2023-04-06T03:58:25;101647.0;;;9.8;43.14
64019;BME280;66942;52.138;5.216;2023-04-06T04:00:01;101651.0;;;9.91;43.63
64019;BME280;66942;52.138;5.216;2023-04-06T04:03:13;101644.0;;;9.84;43.1
64019;BME280;66942;52.138;5.216;2023-04-06T04:04:49;101646.0;;;9.82;43.07
64019;BME280;66942;52.138;5.216;2023-04-06T04:06:25;101649.0;;;9.9;43.05
64019;BME280;66942;52.138;5.216;2023-04-06T04:09:38;101646.0;;;9.77;43.76
64019;BME280;66942;52.138;5.216;2023-04-06T04:11:14;101647.0;;;9.94;43.17
64019;BME280;66942;52.138;5.216;2023-04-06T04:12:50;101648.0;;;9.86;42.77
64019;BME280;66942;52.138;5.216;2023-04-06T04:16:02;101647.0;;;9.89;43.82
64019;BME280;66942;52.138;5.216;2023-04-06T04:17:39;101646.0;;;9.78;43.12
64019;BME280;66942;52.138;5.216;2023-04-06T04:19:15;101651.0;;;9.8;42.89
64019;BME280;66942;52.138;5.216;2023-04-06T04:20:51;101648.0;;;10.01;43.32
64019;BME280;66942;52.138;5.216;2023-04-06T04:24:04;101648.0;;;9.81;43.14
64019;BME280;66942;52.138;5.216;2023-04-06T04:25:40;101648.0;;;9.88;43.91
64019;BME280;66942;52.138;5.216;2023-04-06T04:32:14;101651.0;;;9.85;43.16
64019;BME280;66942;52.138;5.216;2023-04-06T04:33:51;101649.0;;;9.78;44.05
64019;BME280;66942;52.138;5.216;2023-04-06T04:35:27;101647.0;;;9.83;42.77
64019;BME280;66942;52.138;5.216;2023-04-06T04:38:39;101644.0;;;9.74;43.65
64019;BME280;66942;52.138;5.216;2023-04-06T04:40:16;101642.0;;;9.86;43.37
64019;BME280;66942;52.138;5.216;2023-04-06T04:41:52;101643.0;;;9.92;44.59
64019;BME280;66942;52.138;5.216;2023-04-06T04:45:05;101640.0;;;9.84;44.39
64019;BME280;66942;52.138;5.216;2023-04-06T04:46:41;101640.0;;;9.93;43.66
64019;BME280;66942;52.138;5.216;2023-04-06T04:48:18;101636.0;;;10.14;43.1
64019;BME280;66942;52.138;5.216;2023-04-06T04:51:30;101636.0;;;9.97;43.73
64019;BME280;66942;52.138;5.216;2023-04-06T04:53:07;101639.0;;;9.93;42.9
64019;BME280;66942;52.138;5.216;2023-04-06T04:54:43;101638.0;;;9.85;43.43
64019;BME280;66942;52.138;5.216;2023-04-06T04:57:55;101636.0;;;9.99;43.22
64019;BME280;66942;52.138;5.216;2023-04-06T05:01:11;101627.0;;;10.09;43.51
64019;BME280;66942;52.138;5.216;2023-04-06T05:02:47;101631.0;;;9.97;43.84
64019;BME280;66942;52.138;5.216;2023-04-06T05:05:59;101630.0;;;9.96;43.73
64019;BME280;66942;52.138;5.216;2023-04-06T05:07:36;101624.0;;;10.18;43.83
64019;BME280;66942;52.138;5.216;2023-04-06T05:09:13;101623.0;;;10.11;42.75
64019;BME280;66942;52.138;5.216;2023-04-06T05:12:26;101623.0;;;10.01;43.66
64019;BME280;66942;52.138;5.216;2023-04-06T05:14:02;101625.0;;;9.97;43.26
64019;BME280;66942;52.138;5.216;2023-04-06T05:15:39;101623.0;;;9.9;43.23
64019;BME280;66942;52.138;5.216;2023-04-06T05:18:52;101625.0;;;9.91;44.11
64019;BME280;66942;52.138;5.216;2023-04-06T05:20:28;101625.0;;;10.28;43.57
64019;BME280;66942;52.138;5.216;2023-04-06T05:22:05;101623.0;;;10.27;42.51
64019;BME280;66942;52.138;5.216;2023-04-06T05:23:41;101624.0;;;10.13;43.81
64019;BME280;66942;52.138;5.216;2023-04-06T05:26:55;101619.0;;;9.96;43.37
64019;BME280;66942;52.138;5.216;2023-04-06T05:28:32;101620.0;;;10.06;43.53
64019;BME280;66942;52.138;5.216;2023-04-06T05:30:08;101619.0;;;10.1;42.86
64019;BME280;66942;52.138;5.216;2023-04-06T05:33:22;101621.0;;;10.15;44.49
64019;BME280;66942;52.138;5.216;2023-04-06T05:34:59;101624.0;;;10.21;44.04
64019;BME280;66942;52.138;5.216;2023-04-06T05:36:36;101622.0;;;10.22;43.69
64019;BME280;66942;52.138;5.216;2023-04-06T05:39:48;101617.0;;;10.21;43.43
64019;BME280;66942;52.138;5.216;2023-04-06T05:41:24;101618.0;;;10.35;42.77
64019;BME280;66942;52.138;5.216;2023-04-06T05:43:01;101617.0;;;10.29;42.57
64019;BME280;66942;52.138;5.216;2023-04-06T05:44:38;101617.0;;;10.3;43.46
64019;BME280;66942;52.138;5.216;2023-04-06T05:47:51;101618.0;;;10.4;43.28
64019;BME280;66942;52.138;5.216;2023-04-06T05:49:27;101616.0;;;10.61;41.74
64019;BME280;66942;52.138;5.216;2023-04-06T05:51:03;101619.0;;;10.53;42.47
64019;BME280;66942;52.138;5.216;2023-04-06T05:54:17;101617.0;;;10.64;42.79
64019;BME280;66942;52.138;5.216;2023-04-06T05:55:53;101614.0;;;10.61;41.85
64019;BME280;66942;52.138;5.216;2023-04-06T05:57:29;101615.0;;;10.82;41.58
64019;BME280;66942;52.138;5.216;2023-04-06T06:00:43;101616.0;;;10.79;41.55
64019;BME280;66942;52.138;5.216;2023-04-06T06:02:19;101614.0;;;10.85;41.62
64019;BME280;66942;52.138;5.216;2023-04-06T06:03:57;101615.0;;;10.8;42.45
64019;BME280;66942;52.138;5.216;2023-04-06T06:05:33;101615.0;;;10.77;42.63
64019;BME280;66942;52.138;5.216;2023-04-06T06:08:46;101617.0;;;10.88;43.58
64019;BME280;66942;52.138;5.216;2023-04-06T06:10:22;101613.0;;;11.01;41.8
64019;BME280;66942;52.138;5.216;2023-04-06T06:11:59;101622.0;;;10.87;42.24
64019;BME280;66942;52.138;5.216;2023-04-06T06:15:12;101610.0;;;10.98;41.46
64019;BME280;66942;52.138;5.216;2023-04-06T06:16:48;101608.0;;;11.07;42.07
64019;BME280;66942;52.138;5.216;2023-04-06T06:18:24;101611.0;;;11.1;42.3
64019;BME280;66942;52.138;5.216;2023-04-06T06:21:37;101611.0;;;11.05;42.64
64019;BME280;66942;52.138;5.216;2023-04-06T06:23:13;101611.0;;;11.2;42.32
64019;BME280;66942;52.138;5.216;2023-04-06T06:24:50;101610.0;;;11.29;42.31
64019;BME280;66942;52.138;5.216;2023-04-06T06:26:26;101608.0;;;11.23;41.22
64019;BME280;66942;52.138;5.216;2023-04-06T06:29:38;101607.0;;;11.53;40.78
64019;BME280;66942;52.138;5.216;2023-04-06T06:31:14;101611.0;;;11.62;41.14
64019;BME280;66942;52.138;5.216;2023-04-06T06:32:51;101607.0;;;11.79;42.98
64019;BME280;66942;52.138;5.216;2023-04-06T06:36:04;101613.0;;;11.87;41.31
64019;BME280;66942;52.138;5.216;2023-04-06T06:37:40;101615.0;;;11.88;40.53
64019;BME280;66942;52.138;5.216;2023-04-06T06:39:16;101616.0;;;11.91;40.49
64019;BME280;66942;52.138;5.216;2023-04-06T06:42:28;101614.0;;;12.05;41.09
64019;BME280;66942;52.138;5.216;2023-04-06T06:44:04;101614.0;;;12.03;39.89
64019;BME280;66942;52.138;5.216;2023-04-06T06:45:41;101618.0;;;11.98;40.11
64019;BME280;66942;52.138;5.216;2023-04-06T06:47:18;101615.0;;;12.21;40.14
64019;BME280;66942;52.138;5.216;2023-04-06T06:50:30;101614.0;;;12.33;39.74
64019;BME280;66942;52.138;5.216;2023-04-06T06:52:06;101615.0;;;12.37;39.99
64019;BME280;66942;52.138;5.216;2023-04-06T06:53:42;101609.0;;;12.11;40.62
64019;BME280;66942;52.138;5.216;2023-04-06T06:56:54;101611.0;;;12.27;40.75
64019;BME280;66942;52.138;5.216;2023-04-06T06:58:31;101606.0;;;12.14;39.85
64019;BME280;66942;52.138;5.216;2023-04-06T07:00:08;101605.0;;;12.26;40.12
64019;BME280;66942;52.138;5.216;2023-04-06T07:03:21;101605.0;;;12.02;40.53
64019;BME280;66942;52.138;5.216;2023-04-06T07:04:57;101602.0;;;12.27;41.63
64019;BME280;66942;52.138;5.216;2023-04-06T07:06:34;101598.0;;;12.3;41.26
64019;BME280;66942;52.138;5.216;2023-04-06T07:08:11;101595.0;;;12.4;42.43
64019;BME280;66942;52.138;5.216;2023-04-06T07:11:24;101591.0;;;12.34;41.67
64019;BME280;66942;52.138;5.216;2023-04-06T07:13:00;101591.0;;;12.1;40.71
64019;BME280;66942;52.138;5.216;2023-04-06T07:14:36;101588.0;;;12.61;41.02
64019;BME280;66942;52.138;5.216;2023-04-06T07:17:48;101589.0;;;12.2;40.49
64019;BME280;66942;52.138;5.216;2023-04-06T07:19:24;101589.0;;;12.37;40.4
64019;BME280;66942;52.138;5.216;2023-04-06T07:21:00;101586.0;;;12.52;41.64
64019;BME280;66942;52.138;5.216;2023-04-06T07:24:14;101587.0;;;12.45;40.28
64019;BME280;66942;52.138;5.216;2023-04-06T07:25:50;101585.0;;;12.53;40.24
64019;BME280;66942;52.138;5.216;2023-04-06T07:27:26;101580.0;;;12.6;41.05
64019;BME280;66942;52.138;5.216;2023-04-06T07:30:38;101584.0;;;12.63;40.69
64019;BME280;66942;52.138;5.216;2023-04-06T07:32:16;101580.0;;;12.62;39.78
64019;BME280;66942;52.138;5.216;2023-04-06T07:33:52;101583.0;;;12.77;39.54
64019;BME280;66942;52.138;5.216;2023-04-06T07:35:28;101586.0;;;12.84;40.06
64019;BME280;66942;52.138;5.216;2023-04-06T07:38:40;101582.0;;;12.93;40.42
64019;BME280;66942;52.138;5.216;2023-04-06T07:40:16;101583.0;;;12.85;41.31
64019;BME280;66942;52.138;5.216;2023-04-06T07:41:52;101585.0;;;12.94;41.33
64019;BME280;66942;52.138;5.216;2023-04-06T07:45:05;101580.0;;;12.92;40.39
64019;BME280;66942;52.138;5.216;2023-04-06T07:46:42;101584.0;;;12.84;40.65
64019;BME280;66942;52.138;5.216;2023-04-06T07:48:18;101582.0;;;12.9;40.67
64019;BME280;66942;52.138;5.216;2023-04-06T07:51:30;101582.0;;;12.73;40.58
64019;BME280;66942;52.138;5.216;2023-04-06T07:53:08;101587.0;;;12.73;40.03
64019;BME280;66942;52.138;5.216;2023-04-06T07:54:44;101586.0;;;13.14;40.64
64019;BME280;66942;52.138;5.216;2023-04-06T07:56:20;101585.0;;;13.26;39.53
64019;BME280;66942;52.138;5.216;2023-04-06T07:59:33;101581.0;;;12.91;40.28
64019;BME280;66942;52.138;5.216;2023-04-06T08:01:09;101589.0;;;13.53;40.83
64019;BME280;66942;52.138;5.216;2023-04-06T08:02:45;101591.0;;;13.5;41.28
64019;BME280;66942;52.138;5.216;2023-04-06T08:05:57;101588.0;;;13.38;39.58
64019;BME280;66942;52.138;5.216;2023-04-06T08:07:33;101589.0;;;13.54;40.19
64019;BME280;66942;52.138;5.216;2023-04-06T08:09:09;101590.0;;;13.78;38.5
64019;BME280;66942;52.138;5.216;2023-04-06T08:12:21;101587.0;;;13.73;39.87
64019;BME280;66942;52.138;5.216;2023-04-06T08:13:57;101589.0;;;13.98;40.36
64019;BME280;66942;52.138;5.216;2023-04-06T08:15:33;101582.0;;;13.88;38.78
64019;BME280;66942;52.138;5.216;2023-04-06T08:18:45;101580.0;;;14.25;38.4
64019;BME280;66942;52.138;5.216;2023-04-06T08:20:22;101581.0;;;14.24;39.28
64019;BME280;66942;52.138;5.216;2023-04-06T08:21:58;101577.0;;;14.18;38.21
64019;BME280;66942;52.138;5.216;2023-04-06T08:23:34;101578.0;;;14.29;38.6
64019;BME280;66942;52.138;5.216;2023-04-06T08:26:46;101582.0;;;14.46;38.64
64019;BME280;66942;52.138;5.216;2023-04-06T08:28:21;101578.0;;;14.58;39.74
64019;BME280;66942;52.138;5.216;2023-04-06T08:29:57;101580.0;;;14.25;38.26
64019;BME280;66942;52.138;5.216;2023-04-06T08:33:10;101578.0;;;14.09;38.68
64019;BME280;66942;52.138;5.216;2023-04-06T08:34:46;101580.0;;;14.0;39.06
64019;BME280;66942;52.138;5.216;2023-04-06T08:36:22;101574.0;;;14.43;38.07
64019;BME280;66942;52.138;5.216;2023-04-06T08:39:34;101573.0;;;14.8;38.42
64019;BME280;66942;52.138;5.216;2023-04-06T08:41:12;101570.0;;;14.13;38.35
64019;BME280;66942;52.138;5.216;2023-04-06T08:42:51;101572.0;;;14.48;41.35
64019;BME280;66942;52.138;5.216;2023-04-06T08:44:31;101575.0;;;14.74;38.31
64019;BME280;66942;52.138;5.216;2023-04-06T08:47:44;101573.0;;;14.69;38.74
64019;BME280;66942;52.138;5.216;2023-04-06T08:49:22;101573.0;;;14.67;39.17
64019;BME280;66942;52.138;5.216;2023-04-06T08:50:58;101574.0;;;14.9;39.03
64019;BME280;66942;52.138;5.216;2023-04-06T08:54:13;101572.0;;;15.0;38.74
64019;BME280;66942;52.138;5.216;2023-04-06T08:55:49;101576.0;;;14.97;38.89
64019;BME280;66942;52.138;5.216;2023-04-06T08:57:26;101567.0;;;14.98;39.64
64019;BME280;66942;52.138;5.216;2023-04-06T08:59:03;101572.0;;;14.74;39.21
64019;BME280;66942;52.138;5.216;2023-04-06T09:02:18;101576.0;;;15.13;39.6
64019;BME280;66942;52.138;5.216;2023-04-06T09:03:57;101580.0;;;14.89;38.96
64019;BME280;66942;52.138;5.216;2023-04-06T09:05:34;101582.0;;;14.89;40.01
64019;BME280;66942;52.138;5.216;2023-04-06T09:08:47;101580.0;;;14.74;39.33
64019;BME280;66942;52.138;5.216;2023-04-06T09:10:23;101580.0;;;14.82;39.19
64019;BME280;66942;52.138;5.216;2023-04-06T09:11:59;101590.0;;;14.98;38.92
64019;BME280;66942;52.138;5.216;2023-04-06T09:15:21;101590.0;;;14.93;40.22
64019;BME280;66942;52.138;5.216;2023-04-06T09:16:58;101585.0;;;15.14;40.78
64019;BME280;66942;52.138;5.216;2023-04-06T09:18:34;101585.0;;;15.18;39.92
64019;BME280;66942;52.138;5.216;2023-04-06T09:20:11;101592.0;;;14.9;40.22
64019;BME280;66942;52.138;5.216;2023-04-06T09:23:23;101589.0;;;15.12;41.9
64019;BME280;66942;52.138;5.216;2023-04-06T09:24:59;101593.0;;;15.09;41.42
64019;BME280;66942;52.138;5.216;2023-04-06T09:26:50;101593.0;;;15.04;40.92
64019;BME280;66942;52.138;5.216;2023-04-06T09:28:26;101589.0;;;14.83;41.87
64019;BME280;66942;52.138;5.216;2023-04-06T09:31:41;101589.0;;;14.98;42.32
64019;BME280;66942;52.138;5.216;2023-04-06T09:33:23;101594.0;;;14.68;42.63
64019;BME280;66942;52.138;5.216;2023-04-06T09:35:06;101595.0;;;14.58;43.11
64019;BME280;66942;52.138;5.216;2023-04-06T09:36:43;101598.0;;;14.64;42.77
64019;BME280;66942;52.138;5.216;2023-04-06T09:40:02;101598.0;;;14.63;43.7
64019;BME280;66942;52.138;5.216;2023-04-06T09:41:39;101588.0;;;14.7;45.14
64019;BME280;66942;52.138;5.216;2023-04-06T09:43:23;101590.0;;;14.38;45.12
64019;BME280;66942;52.138;5.216;2023-04-06T09:46:37;101589.0;;;14.45;45.06
64019;BME280;66942;52.138;5.216;2023-04-06T09:48:15;101587.0;;;14.71;43.41
64019;BME280;66942;52.138;5.216;2023-04-06T09:49:56;101592.0;;;15.01;45.32
64019;BME280;66942;52.138;5.216;2023-04-06T09:51:37;101588.0;;;14.8;43.16
64019;BME280;66942;52.138;5.216;2023-04-06T09:54:55;101593.0;;;14.66;45.1
64019;BME280;66942;52.138;5.216;2023-04-06T09:56:42;101588.0;;;14.72;44.42
64019;BME280;66942;52.138;5.216;2023-04-06T09:58:22;101585.0;;;14.81;44.56
64019;BME280;66942;52.138;5.216;2023-04-06T10:00:03;101583.0;;;14.82;44.94
64019;BME280;66942;52.138;5.216;2023-04-06T10:03:21;101587.0;;;14.89;44.59
64019;BME280;66942;52.138;5.216;2023-04-06T10:05:08;101587.0;;;14.83;44.17
64019;BME280;66942;52.138;5.216;2023-04-06T10:06:48;101588.0;;;14.87;44.42
64019;BME280;66942;52.138;5.216;2023-04-06T10:08:26;101587.0;;;15.2;44.53
64019;BME280;66942;52.138;5.216;2023-04-06T10:11:41;101581.0;;;15.17;43.77
64019;BME280;66942;52.138;5.216;2023-04-06T10:13:19;101587.0;;;15.6;43.5
64019;BME280;66942;52.138;5.216;2023-04-06T10:14:56;101589.0;;;15.36;44.44
64019;BME280;66942;52.138;5.216;2023-04-06T10:16:32;101590.0;;;15.4;44.68
64019;BME280;66942;52.138;5.216;2023-04-06T10:19:48;101581.0;;;15.38;46.16
64019;BME280;66942;52.138;5.216;2023-04-06T10:21:39;101585.0;;;15.47;46.91
64019;BME280;66942;52.138;5.216;2023-04-06T10:23:23;101580.0;;;15.54;47.8
64019;BME280;66942;52.138;5.216;2023-04-06T10:25:07;101585.0;;;15.37;48.81
64019;BME280;66942;52.138;5.216;2023-04-06T10:28:35;101580.0;;;15.44;48.13
64019;BME280;66942;52.138;5.216;2023-04-06T10:30:15;101581.0;;;15.22;46.61
64019;BME280;66942;52.138;5.216;2023-04-06T10:31:51;101582.0;;;15.03;48.18
64019;BME280;66942;52.138;5.216;2023-04-06T10:33:28;101585.0;;;15.22;48.56
64019;BME280;66942;52.138;5.216;2023-04-06T10:36:43;101587.0;;;14.49;49.07
64019;BME280;66942;52.138;5.216;2023-04-06T10:38:20;101581.0;;;14.71;50.39
64019;BME280;66942;52.138;5.216;2023-04-06T10:39:56;101587.0;;;14.72;50.48
64019;BME280;66942;52.138;5.216;2023-04-06T10:41:32;101583.0;;;14.81;50.62
64019;BME280;66942;52.138;5.216;2023-04-06T10:44:49;101583.0;;;14.3;51.8
64019;BME280;66942;52.138;5.216;2023-04-06T10:46:26;101580.0;;;13.98;52.4
64019;BME280;66942;52.138;5.216;2023-04-06T10:48:20;101580.0;;;14.5;51.44
64019;BME280;66942;52.138;5.216;2023-04-06T10:49:56;101584.0;;;14.56;52.64
64019;BME280;66942;52.138;5.216;2023-04-06T10:53:21;101568.0;;;14.25;52.92
64019;BME280;66942;52.138;5.216;2023-04-06T10:54:58;101577.0;;;14.3;53.65
64019;BME280;66942;52.138;5.216;2023-04-06T10:56:36;101568.0;;;14.08;54.28
64019;BME280;66942;52.138;5.216;2023-04-06T10:59:53;101562.0;;;14.16;54.33
64019;BME280;66942;52.138;5.216;2023-04-06T11:01:28;101556.0;;;14.24;53.68
64019;BME280;66942;52.138;5.216;2023-04-06T11:03:04;101563.0;;;14.29;54.27
64019;BME280;66942;52.138;5.216;2023-04-06T11:04:41;101563.0;;;14.13;55.88
64019;BME280;66942;52.138;5.216;2023-04-06T11:07:56;101561.0;;;14.27;54.76
64019;BME280;66942;52.138;5.216;2023-04-06T11:09:31;101560.0;;;14.6;54.69
64019;BME280;66942;52.138;5.216;2023-04-06T11:11:09;101565.0;;;14.13;55.05
64019;BME280;66942;52.138;5.216;2023-04-06T11:14:28;101557.0;;;13.93;55.21
64019;BME280;66942;52.138;5.216;2023-04-06T11:16:04;101553.0;;;13.78;55.62
64019;BME280;66942;52.138;5.216;2023-04-06T11:17:40;101556.0;;;14.32;55.4